createdAt,value
2023-01-19T00:00:55.119Z,95.10
2023-01-19T00:03:22.299Z,95.30
2023-01-19T00:05:49.828Z,95.40
2023-01-19T00:08:17.482Z,95.30
2023-01-19T00:10:51.118Z,95.20
2023-01-19T00:13:18.921Z,95.10
2023-01-19T00:15:46.099Z,95.00
2023-01-19T00:18:13.350Z,95.10
2023-01-19T00:20:40.844Z,95.20
2023-01-19T00:23:08.815Z,95.10
2023-01-19T00:25:42.209Z,95.10
2023-01-19T00:28:10.979Z,95.10
2023-01-19T00:30:39.167Z,95.20
2023-01-19T00:33:08.513Z,95.20
2023-01-19T00:35:36.294Z,94.90
2023-01-19T00:38:03.699Z,94.80
2023-01-19T00:40:30.998Z,95.00
2023-01-19T00:42:58.709Z,94.90
2023-01-19T00:45:26.599Z,95.00
2023-01-19T00:47:57.011Z,95.10
2023-01-19T00:50:26.437Z,95.30
2023-01-19T00:52:55.131Z,95.40
2023-01-19T00:55:22.888Z,95.50
2023-01-19T00:57:50.662Z,95.40
2023-01-19T01:00:19.955Z,95.40
2023-01-19T01:02:49.202Z,95.90
2023-01-19T01:05:16.992Z,95.50
2023-01-19T01:07:45.250Z,95.50
2023-01-19T01:10:18.547Z,95.70
2023-01-19T01:12:56.328Z,95.80
2023-01-19T01:15:26.952Z,95.80
2023-01-19T01:17:54.416Z,95.90
2023-01-19T01:20:26.918Z,96.00
2023-01-19T01:22:55.056Z,96.10
2023-01-19T01:25:26.664Z,96.10
2023-01-19T01:27:54.418Z,96.10
2023-01-19T01:30:22.172Z,95.80
2023-01-19T01:32:49.784Z,95.50
2023-01-19T01:35:17.290Z,95.50
2023-01-19T01:37:45.060Z,95.40
2023-01-19T01:40:14.643Z,95.30
2023-01-19T01:42:42.584Z,95.20
2023-01-19T01:45:35.345Z,95.10
2023-01-19T01:48:09.038Z,95.10
2023-01-19T01:51:02.005Z,95.30
2023-01-19T01:53:32.080Z,95.10
2023-01-19T01:56:00.808Z,95.00
2023-01-19T01:58:28.456Z,95.00
2023-01-19T02:01:14.427Z,95.10
2023-01-19T02:03:41.783Z,95.10
2023-01-19T02:06:11.608Z,95.10
2023-01-19T02:09:10.696Z,95.20
2023-01-19T02:11:57.516Z,95.10
2023-01-19T02:14:24.738Z,94.70
2023-01-19T02:16:52.183Z,94.70
2023-01-19T02:19:26.570Z,94.60
2023-01-19T02:22:01.447Z,94.60
2023-01-19T02:24:29.327Z,94.50
2023-01-19T02:26:57.514Z,94.20
2023-01-19T02:29:26.356Z,94.20
2023-01-19T02:31:55.606Z,94.20
2023-01-19T02:34:23.201Z,94.40
2023-01-19T02:37:06.507Z,94.60
2023-01-19T02:39:38.635Z,94.70
2023-01-19T02:42:11.516Z,94.70
2023-01-19T02:44:40.579Z,94.70
2023-01-19T02:47:07.767Z,94.60
2023-01-19T02:49:34.916Z,94.40
2023-01-19T02:52:02.648Z,94.00
2023-01-19T02:54:58.201Z,93.80
2023-01-19T02:57:50.526Z,93.40
2023-01-19T03:00:34.366Z,93.20
2023-01-19T03:03:41.496Z,93.20
2023-01-19T03:06:32.766Z,93.10
2023-01-19T03:09:09.248Z,93.10
2023-01-19T03:11:42.090Z,93.00
2023-01-19T03:14:13.454Z,93.00
2023-01-19T03:16:55.077Z,92.90
2023-01-19T03:19:29.493Z,93.30
2023-01-19T03:22:00.181Z,93.00
2023-01-19T03:24:31.424Z,93.20
2023-01-19T03:27:06.921Z,93.30
2023-01-19T03:29:36.544Z,93.50
2023-01-19T03:32:09.300Z,93.60
2023-01-19T03:34:39.114Z,93.60
2023-01-19T03:37:10.328Z,93.60
2023-01-19T03:39:37.708Z,93.70
2023-01-19T03:42:12.905Z,93.70
2023-01-19T03:44:42.153Z,93.90
2023-01-19T03:47:13.638Z,94.10
2023-01-19T03:49:43.024Z,94.20
2023-01-19T03:52:10.650Z,94.20
2023-01-19T03:54:37.865Z,94.20
2023-01-19T03:57:05.072Z,94.30
2023-01-19T03:59:32.617Z,94.20
2023-01-19T04:01:59.972Z,94.40
2023-01-19T04:04:27.158Z,94.50
2023-01-19T04:06:54.366Z,94.70
2023-01-19T04:09:21.521Z,94.70
2023-01-19T04:11:48.746Z,94.60
2023-01-19T04:14:15.918Z,94.50
2023-01-19T04:16:43.202Z,94.50
2023-01-19T04:19:10.387Z,94.50
2023-01-19T04:21:37.593Z,94.50
2023-01-19T04:24:05.042Z,94.50
2023-01-19T04:26:32.246Z,94.40
2023-01-19T04:28:59.417Z,94.30
2023-01-19T04:31:27.106Z,94.10
2023-01-19T04:33:55.914Z,93.90
2023-01-19T04:36:23.153Z,93.70
2023-01-19T04:38:50.296Z,93.60
2023-01-19T04:41:18.577Z,93.30
2023-01-19T04:43:47.516Z,93.10
2023-01-19T04:46:15.256Z,92.60
2023-01-19T04:48:42.726Z,92.30
2023-01-19T04:51:09.941Z,92.00
2023-01-19T04:53:37.226Z,91.90
2023-01-19T04:56:04.636Z,91.70
2023-01-19T04:58:31.777Z,92.00
2023-01-19T05:00:59.315Z,91.40
2023-01-19T05:03:26.918Z,91.30
2023-01-19T05:05:54.242Z,91.20
2023-01-19T05:08:21.569Z,91.00
2023-01-19T05:10:48.856Z,91.00
2023-01-19T05:13:16.149Z,90.90
2023-01-19T05:15:43.319Z,90.80
2023-01-19T05:18:10.695Z,90.70
2023-01-19T05:20:38.089Z,90.50
2023-01-19T05:23:05.275Z,90.30
2023-01-19T05:25:32.427Z,90.10
2023-01-19T05:27:59.762Z,90.10
2023-01-19T05:30:27.002Z,90.00
2023-01-19T05:32:54.478Z,90.00
2023-01-19T05:35:31.304Z,89.70
2023-01-19T05:38:02.665Z,89.30
2023-01-19T05:40:29.851Z,89.30
2023-01-19T05:43:01.043Z,89.00
2023-01-19T05:45:28.664Z,90.00
2023-01-19T05:47:55.884Z,90.40
2023-01-19T05:50:23.447Z,90.60
2023-01-19T05:52:53.193Z,90.80
2023-01-19T05:55:21.016Z,90.90
2023-01-19T05:57:48.235Z,91.00
2023-01-19T06:00:16.069Z,90.90
2023-01-19T06:02:43.681Z,91.00
2023-01-19T06:05:11.027Z,90.80
2023-01-19T06:07:38.190Z,90.60
2023-01-19T06:10:05.951Z,90.30
2023-01-19T06:12:33.150Z,90.10
2023-01-19T06:15:00.492Z,89.70
2023-01-19T06:17:27.719Z,89.30
2023-01-19T06:19:55.066Z,88.90
2023-01-19T06:22:23.070Z,88.60
2023-01-19T06:24:50.587Z,88.20
2023-01-19T06:27:17.934Z,87.90
2023-01-19T06:29:45.116Z,87.40
2023-01-19T06:32:12.322Z,87.20
2023-01-19T06:34:43.538Z,87.00
2023-01-19T06:37:11.627Z,86.80
2023-01-19T06:39:40.972Z,86.70
2023-01-19T06:42:08.791Z,86.80
2023-01-19T06:44:35.981Z,86.80
2023-01-19T06:47:14.866Z,86.60
2023-01-19T06:49:43.944Z,86.50
2023-01-19T06:52:14.054Z,86.60
2023-01-19T06:54:41.514Z,86.60
2023-01-19T06:57:09.076Z,86.50
2023-01-19T06:59:36.327Z,86.40
2023-01-19T07:02:26.624Z,86.20
2023-01-19T07:04:51.003Z,85.80
2023-01-19T07:07:18.236Z,85.20
2023-01-19T07:09:45.443Z,84.90
2023-01-19T07:12:12.583Z,84.60
2023-01-19T07:14:40.990Z,84.00
2023-01-19T07:17:08.647Z,83.60
2023-01-19T07:19:35.950Z,83.60
2023-01-19T07:22:03.324Z,83.40
2023-01-19T07:24:30.666Z,83.50
2023-01-19T07:26:58.512Z,83.50
2023-01-19T07:29:25.954Z,83.40
2023-01-19T07:31:54.671Z,83.20
2023-01-19T07:34:22.190Z,83.40
2023-01-19T07:36:49.731Z,83.40
2023-01-19T07:39:17.085Z,83.70
2023-01-19T07:41:44.422Z,84.00
2023-01-19T07:44:11.617Z,84.20
2023-01-19T07:46:38.794Z,84.30
2023-01-19T07:49:06.091Z,84.10
2023-01-19T07:51:33.254Z,84.20
2023-01-19T07:54:01.568Z,84.50
2023-01-19T07:56:32.678Z,85.00
2023-01-19T07:58:59.984Z,84.90
2023-01-19T08:01:27.422Z,84.90
2023-01-19T08:03:54.631Z,84.30
2023-01-19T08:06:25.482Z,83.60
2023-01-19T08:08:53.196Z,83.00
2023-01-19T08:11:20.322Z,82.30
2023-01-19T08:13:47.489Z,81.80
2023-01-19T08:16:14.625Z,81.60
2023-01-19T08:18:42.499Z,81.40
2023-01-19T08:21:09.714Z,80.40
2023-01-19T08:23:36.844Z,79.90
2023-01-19T08:26:23.774Z,79.30
2023-01-19T08:28:50.963Z,79.00
2023-01-19T08:31:21.716Z,79.10
2023-01-19T08:33:50.176Z,78.80
2023-01-19T08:36:17.494Z,78.10
2023-01-19T08:38:47.910Z,76.90
2023-01-19T08:41:16.903Z,75.80
2023-01-19T08:43:45.399Z,74.60
2023-01-19T08:46:16.784Z,74.10
2023-01-19T08:48:50.707Z,73.90
2023-01-19T08:51:18.082Z,73.30
2023-01-19T08:53:45.371Z,73.20
2023-01-19T08:56:13.734Z,73.10
2023-01-19T08:58:43.104Z,73.10
2023-01-19T09:01:14.682Z,73.00
2023-01-19T09:03:42.413Z,73.10
2023-01-19T09:06:10.924Z,75.70
2023-01-19T09:08:38.417Z,68.30
2023-01-19T09:11:11.176Z,55.30
2023-01-19T09:13:39.343Z,47.80
2023-01-19T09:16:07.839Z,42.60
2023-01-19T09:18:35.968Z,37.90
2023-01-19T09:21:06.414Z,35.10
2023-01-19T09:23:33.756Z,33.30
2023-01-19T09:26:03.345Z,31.00
2023-01-19T09:28:31.435Z,30.10
2023-01-19T09:30:58.727Z,29.60
2023-01-19T09:33:26.003Z,29.50
2023-01-19T09:35:53.211Z,29.10
2023-01-19T09:38:22.381Z,28.20
2023-01-19T09:40:57.072Z,27.10
2023-01-19T09:43:27.355Z,26.90
2023-01-19T09:45:58.150Z,26.80
2023-01-19T09:48:46.108Z,26.10
2023-01-19T09:51:22.884Z,25.00
2023-01-19T09:54:18.935Z,24.30
2023-01-19T09:56:51.311Z,23.50
2023-01-19T09:59:49.348Z,22.90
2023-01-19T10:02:48.145Z,23.00
2023-01-19T10:05:31.250Z,23.80
2023-01-19T10:08:16.604Z,23.80
2023-01-19T10:10:51.650Z,23.60
2023-01-19T10:13:57.634Z,23.20
2023-01-19T10:16:45.245Z,23.00
2023-01-19T10:19:22.763Z,22.20
2023-01-19T10:21:51.405Z,21.60
2023-01-19T10:24:36.084Z,21.80
2023-01-19T10:27:09.460Z,21.30
2023-01-19T10:29:37.801Z,21.10
2023-01-19T10:32:13.793Z,21.20
2023-01-19T10:34:41.595Z,21.40
2023-01-19T10:37:17.406Z,21.50
2023-01-19T10:39:47.008Z,22.00
2023-01-19T10:42:16.828Z,21.80
2023-01-19T10:44:45.714Z,22.70
2023-01-19T10:47:19.441Z,23.30
2023-01-19T10:49:48.293Z,22.80
2023-01-19T10:52:30.169Z,23.00
2023-01-19T10:54:59.928Z,22.70
2023-01-19T10:57:43.262Z,22.70
2023-01-19T11:00:40.808Z,22.90
2023-01-19T11:03:24.031Z,22.60
2023-01-19T11:05:51.716Z,20.90
2023-01-19T11:08:28.889Z,20.90
2023-01-19T11:11:03.626Z,21.40
2023-01-19T11:13:31.855Z,21.70
2023-01-19T11:16:16.385Z,22.60
2023-01-19T11:18:45.444Z,22.70
2023-01-19T11:21:15.855Z,22.60
2023-01-19T11:23:51.187Z,24.60
2023-01-19T11:26:33.416Z,25.50
2023-01-19T11:29:03.048Z,23.70
2023-01-19T11:31:31.257Z,24.10
2023-01-19T11:34:04.015Z,27.00
2023-01-19T11:36:34.694Z,30.00
2023-01-19T11:39:21.517Z,33.70
2023-01-19T11:41:53.475Z,37.40
2023-01-19T11:44:36.385Z,40.50
2023-01-19T11:47:12.225Z,41.90
2023-01-19T11:49:43.789Z,44.50
2023-01-19T11:52:26.192Z,41.30
2023-01-19T11:55:06.832Z,39.80
2023-01-19T11:57:34.142Z,40.70
2023-01-19T12:00:12.921Z,34.30
2023-01-19T12:02:46.699Z,29.60
2023-01-19T12:05:19.069Z,27.00
2023-01-19T12:07:48.932Z,25.00
2023-01-19T12:10:31.843Z,24.00
2023-01-19T12:13:00.137Z,22.80
2023-01-19T12:15:37.054Z,22.40
2023-01-19T12:18:07.619Z,22.50
2023-01-19T12:20:44.394Z,25.80
2023-01-19T12:23:11.553Z,26.50
2023-01-19T12:26:02.127Z,24.50
2023-01-19T12:28:36.891Z,24.60
2023-01-19T12:31:04.472Z,23.90
2023-01-19T12:33:39.956Z,24.90
2023-01-19T12:36:33.049Z,28.00
2023-01-19T12:39:04.998Z,27.20
2023-01-19T12:41:38.091Z,27.80
2023-01-19T12:44:11.254Z,28.30
2023-01-19T12:46:39.777Z,32.90
2023-01-19T12:49:32.810Z,37.00
2023-01-19T12:52:23.740Z,42.00
2023-01-19T12:54:56.745Z,45.10
2023-01-19T12:57:38.634Z,42.90
2023-01-19T13:00:26.075Z,42.20
2023-01-19T13:03:23.484Z,42.00
2023-01-19T13:05:53.074Z,45.20
2023-01-19T13:08:26.601Z,38.60
2023-01-19T13:10:55.906Z,33.80
2023-01-19T13:13:24.373Z,31.40
2023-01-19T13:15:55.464Z,31.40
2023-01-19T13:18:30.614Z,29.40
2023-01-19T13:21:05.186Z,27.80
2023-01-19T13:23:47.540Z,30.00
2023-01-19T13:26:16.938Z,34.80
2023-01-19T13:28:48.264Z,38.60
2023-01-19T13:31:16.420Z,41.80
2023-01-19T13:33:51.667Z,44.40
2023-01-19T13:36:27.226Z,45.90
2023-01-19T13:38:55.675Z,44.90
2023-01-19T13:41:26.814Z,41.80
2023-01-19T13:44:12.298Z,38.80
2023-01-19T13:46:40.642Z,40.00
2023-01-19T13:49:39.817Z,40.80
2023-01-19T13:52:11.340Z,43.40
2023-01-19T13:54:54.168Z,45.70
2023-01-19T13:57:25.653Z,46.10
2023-01-19T14:00:16.970Z,46.40
2023-01-19T14:03:00.933Z,46.90
2023-01-19T14:05:39.053Z,43.10
2023-01-19T14:08:18.029Z,41.60
2023-01-19T14:11:06.919Z,42.30
2023-01-19T14:13:41.432Z,40.10
2023-01-19T14:16:16.636Z,38.30
2023-01-19T14:18:43.876Z,40.60
2023-01-19T14:21:13.652Z,38.90
2023-01-19T14:23:50.703Z,38.10
2023-01-19T14:26:53.785Z,40.30
2023-01-19T14:29:28.518Z,40.10
2023-01-19T14:32:01.566Z,42.40
2023-01-19T14:34:50.285Z,41.70
2023-01-19T14:37:34.812Z,43.30
2023-01-19T14:40:08.882Z,44.80
2023-01-19T14:42:44.022Z,46.00
2023-01-19T14:45:23.023Z,47.40
2023-01-19T14:48:18.246Z,46.10
2023-01-19T14:51:02.090Z,42.70
2023-01-19T14:53:36.605Z,41.90
2023-01-19T14:56:05.920Z,41.90
2023-01-19T14:58:35.161Z,43.90
2023-01-19T15:01:03.318Z,44.30
2023-01-19T15:03:43.364Z,43.50
2023-01-19T15:06:14.591Z,42.70
2023-01-19T15:08:42.419Z,42.90
2023-01-19T15:11:26.945Z,42.80
2023-01-19T15:13:55.261Z,42.60
2023-01-19T15:16:24.060Z,43.30
2023-01-19T15:18:51.617Z,43.40
2023-01-19T15:21:23.015Z,45.40
2023-01-19T15:23:50.472Z,45.90
2023-01-19T15:26:20.703Z,45.60
2023-01-19T15:28:51.571Z,45.80
2023-01-19T15:31:21.022Z,47.10
2023-01-19T15:33:48.309Z,48.70
2023-01-19T15:36:18.270Z,50.30
2023-01-19T15:38:46.186Z,51.20
2023-01-19T15:41:23.655Z,51.60
2023-01-19T15:43:51.437Z,52.80
2023-01-19T15:46:23.520Z,53.70
2023-01-19T15:48:50.824Z,54.60
2023-01-19T15:51:20.365Z,55.10
2023-01-19T15:53:47.782Z,57.10
2023-01-19T15:56:16.811Z,58.10
2023-01-19T15:58:44.594Z,58.60
2023-01-19T16:01:32.194Z,59.10
2023-01-19T16:04:01.397Z,59.90
2023-01-19T16:06:30.561Z,60.60
2023-01-19T16:09:01.778Z,61.50
2023-01-19T16:11:31.491Z,61.60
2023-01-19T16:13:58.975Z,63.00
2023-01-19T16:16:27.918Z,63.60
2023-01-19T16:18:55.799Z,64.10
2023-01-19T16:21:23.679Z,64.60
2023-01-19T16:23:51.478Z,65.20
2023-01-19T16:26:36.693Z,65.50
2023-01-19T16:29:08.829Z,66.00
2023-01-19T16:31:40.496Z,66.50
2023-01-19T16:34:08.419Z,67.20
2023-01-19T16:36:37.658Z,67.80
2023-01-19T16:39:07.914Z,68.30
2023-01-19T16:41:36.300Z,68.80
2023-01-19T16:44:04.252Z,69.10
2023-01-19T16:46:35.119Z,69.40
2023-01-19T16:49:10.551Z,69.70
2023-01-19T16:51:38.109Z,69.80
2023-01-19T16:54:05.427Z,70.00
2023-01-19T16:56:32.852Z,70.10
2023-01-19T16:59:00.090Z,70.30
2023-01-19T17:01:29.172Z,70.50
2023-01-19T17:03:56.722Z,70.80
2023-01-19T17:06:25.257Z,70.90
2023-01-19T17:08:53.114Z,71.10
2023-01-19T17:11:23.714Z,70.50
2023-01-19T17:14:01.996Z,71.40
2023-01-19T17:16:30.965Z,71.50
2023-01-19T17:18:59.995Z,71.60
2023-01-19T17:21:27.764Z,71.60
2023-01-19T17:23:56.230Z,71.70
2023-01-19T17:26:31.166Z,71.60
2023-01-19T17:29:03.731Z,71.50
2023-01-19T17:31:32.091Z,71.60
2023-01-19T17:34:00.198Z,71.60
2023-01-19T17:36:28.970Z,71.60
2023-01-19T17:38:58.218Z,71.60
2023-01-19T17:41:30.762Z,71.70
2023-01-19T17:44:01.052Z,71.90
2023-01-19T17:46:29.447Z,71.90
2023-01-19T17:48:57.519Z,72.20
2023-01-19T17:51:25.749Z,72.80
2023-01-19T17:53:54.392Z,73.10
2023-01-19T17:56:27.384Z,74.50
2023-01-19T17:58:55.203Z,75.30
2023-01-19T18:01:25.020Z,76.50
2023-01-19T18:03:52.941Z,78.10
2023-01-19T18:06:21.118Z,79.60
2023-01-19T18:08:49.452Z,80.40
2023-01-19T18:11:18.916Z,81.00
2023-01-19T18:13:48.239Z,81.50
2023-01-19T18:16:19.172Z,82.30
2023-01-19T18:18:46.414Z,82.80
2023-01-19T18:21:15.303Z,83.90
2023-01-19T18:23:43.468Z,84.10
2023-01-19T18:26:14.039Z,84.70
2023-01-19T18:28:41.434Z,85.30
2023-01-19T18:31:10.870Z,84.70
2023-01-19T18:33:38.779Z,85.80
2023-01-19T18:36:06.661Z,86.70
2023-01-19T18:38:34.914Z,87.20
2023-01-19T18:41:03.718Z,87.40
2023-01-19T18:43:31.666Z,87.70
2023-01-19T18:45:58.926Z,88.10
2023-01-19T18:48:26.388Z,88.90
2023-01-19T18:50:54.005Z,89.50
2023-01-19T18:53:22.350Z,88.70
2023-01-19T18:55:52.197Z,89.00
2023-01-19T18:58:20.317Z,90.00
2023-01-19T19:00:48.601Z,90.50
2023-01-19T19:03:16.227Z,90.80
2023-01-19T19:05:43.465Z,91.20
2023-01-19T19:08:10.735Z,91.90
2023-01-19T19:10:40.761Z,91.40
2023-01-19T19:13:09.151Z,91.90
2023-01-19T19:15:36.358Z,92.10
2023-01-19T19:18:03.574Z,92.30
2023-01-19T19:20:30.827Z,92.50
2023-01-19T19:22:58.035Z,92.60
2023-01-19T19:25:25.241Z,92.70
2023-01-19T19:27:52.884Z,92.90
2023-01-19T19:30:20.798Z,93.00
2023-01-19T19:32:56.309Z,93.10
2023-01-19T19:35:24.176Z,93.30
2023-01-19T19:37:57.151Z,93.30
2023-01-19T19:40:26.165Z,93.20
2023-01-19T19:42:53.445Z,93.20
2023-01-19T19:45:20.699Z,93.20
2023-01-19T19:47:47.890Z,93.40
2023-01-19T19:50:15.664Z,93.40
2023-01-19T19:52:42.894Z,93.50
2023-01-19T19:55:10.723Z,93.60
2023-01-19T19:57:38.301Z,93.70
2023-01-19T20:00:21.552Z,93.60
2023-01-19T20:02:50.649Z,93.60
2023-01-19T20:05:17.977Z,93.60
2023-01-19T20:07:48.081Z,93.60
2023-01-19T20:10:15.543Z,93.40
2023-01-19T20:12:42.657Z,93.20
2023-01-19T20:15:10.626Z,93.10
2023-01-19T20:17:37.763Z,93.30
2023-01-19T20:20:05.549Z,93.50
2023-01-19T20:22:33.167Z,93.60
2023-01-19T20:25:00.383Z,93.70
2023-01-19T20:27:27.639Z,93.70
2023-01-19T20:29:58.034Z,94.10
2023-01-19T20:32:25.324Z,93.70
2023-01-19T20:34:52.759Z,93.70
2023-01-19T20:37:19.938Z,93.70
2023-01-19T20:39:47.108Z,93.60
2023-01-19T20:42:16.371Z,93.80
2023-01-19T20:44:43.843Z,93.90
2023-01-19T20:47:11.100Z,93.90
2023-01-19T20:49:38.456Z,93.90
2023-01-19T20:52:05.657Z,93.60
2023-01-19T20:54:33.339Z,93.60
2023-01-19T20:57:00.600Z,93.60
2023-01-19T20:59:27.947Z,93.50
2023-01-19T21:01:55.470Z,93.60
2023-01-19T21:04:22.840Z,93.60
2023-01-19T21:06:50.072Z,93.70
2023-01-19T21:09:18.552Z,93.70
2023-01-19T21:11:45.750Z,93.80
2023-01-19T21:14:12.966Z,93.80
2023-01-19T21:16:42.430Z,94.20
2023-01-19T21:19:09.775Z,93.80
2023-01-19T21:21:36.935Z,93.90
2023-01-19T21:24:04.866Z,94.00
2023-01-19T21:26:33.426Z,94.10
2023-01-19T21:29:02.027Z,94.10
2023-01-19T21:31:29.703Z,93.90
2023-01-19T21:33:59.800Z,93.80
2023-01-19T21:36:27.138Z,93.60
2023-01-19T21:39:00.029Z,93.50
2023-01-19T21:41:28.285Z,93.00
2023-01-19T21:43:55.522Z,93.20
2023-01-19T21:46:29.538Z,93.10
2023-01-19T21:48:58.337Z,93.10
2023-01-19T21:51:25.753Z,93.20
2023-01-19T21:53:54.925Z,93.30
2023-01-19T21:56:22.939Z,93.30
2023-01-19T21:58:50.205Z,93.40
2023-01-19T22:01:17.501Z,93.00
2023-01-19T22:03:44.825Z,93.40
2023-01-19T22:06:13.960Z,93.40
2023-01-19T22:08:41.804Z,93.50
2023-01-19T22:11:11.784Z,93.50
2023-01-19T22:13:39.711Z,93.50
2023-01-19T22:16:10.362Z,93.40
2023-01-19T22:18:39.094Z,93.50
2023-01-19T22:21:15.031Z,93.50
2023-01-19T22:23:42.865Z,93.40
2023-01-19T22:26:11.720Z,93.50
2023-01-19T22:28:39.114Z,93.60
2023-01-19T22:31:12.097Z,93.70
2023-01-19T22:33:39.601Z,93.80
2023-01-19T22:36:14.727Z,93.90
2023-01-19T22:38:42.865Z,93.80
2023-01-19T22:41:24.359Z,93.70
2023-01-19T22:43:54.498Z,93.70
2023-01-19T22:46:24.044Z,93.60
2023-01-19T22:48:52.435Z,93.50
2023-01-19T22:51:20.732Z,93.10
2023-01-19T22:53:48.370Z,93.30
2023-01-19T22:56:19.407Z,93.30
2023-01-19T22:58:47.330Z,93.20
2023-01-19T23:01:23.940Z,93.20
2023-01-19T23:03:51.887Z,93.10
2023-01-19T23:06:22.095Z,93.10
2023-01-19T23:08:49.359Z,93.10
2023-01-19T23:11:38.695Z,93.10
2023-01-19T23:14:07.413Z,93.10
2023-01-19T23:16:35.023Z,93.10
2023-01-19T23:19:03.165Z,93.10
2023-01-19T23:21:31.716Z,93.10
2023-01-19T23:24:01.271Z,93.20
2023-01-19T23:26:30.696Z,93.30
2023-01-19T23:29:01.163Z,93.10
2023-01-19T23:31:31.053Z,92.90
2023-01-19T23:34:00.702Z,92.90
2023-01-19T23:36:29.640Z,93.00
2023-01-19T23:38:58.991Z,93.00
2023-01-19T23:41:27.831Z,93.10
2023-01-19T23:43:55.038Z,93.10
2023-01-19T23:46:22.710Z,93.10
2023-01-19T23:48:50.378Z,93.20
2023-01-19T23:51:20.547Z,93.30
2023-01-19T23:53:48.160Z,93.50
2023-01-19T23:56:21.210Z,93.50
2023-01-19T23:58:53.549Z,93.60
